createdAt,value
2022-07-29T00:02:26.389Z,2.80
2022-07-29T00:04:53.481Z,3.25
2022-07-29T00:07:20.879Z,3.20
2022-07-29T00:09:51.643Z,3.30
2022-07-29T00:12:25.191Z,3.03
2022-07-29T00:14:55.164Z,3.20
2022-07-29T00:17:22.408Z,3.30
2022-07-29T00:19:49.437Z,3.50
2022-07-29T00:22:16.244Z,3.40
2022-07-29T00:24:43.088Z,3.40
2022-07-29T00:27:09.909Z,3.17
2022-07-29T00:29:36.754Z,3.40
2022-07-29T00:32:04.050Z,3.58
2022-07-29T00:34:50.002Z,3.40
2022-07-29T00:37:17.298Z,3.23
2022-07-29T00:39:44.151Z,3.00
2022-07-29T00:42:11.059Z,3.50
2022-07-29T00:44:39.602Z,3.50
2022-07-29T00:47:07.188Z,2.85
2022-07-29T00:49:35.209Z,3.30
2022-07-29T00:52:04.022Z,3.60
2022-07-29T00:54:31.261Z,3.40
2022-07-29T00:57:01.619Z,3.60
2022-07-29T00:59:34.874Z,3.33
2022-07-29T01:02:05.457Z,3.30
2022-07-29T01:04:33.151Z,3.42
2022-07-29T01:07:02.629Z,3.20
2022-07-29T01:09:42.915Z,3.40
2022-07-29T01:12:19.480Z,3.40
2022-07-29T01:14:47.297Z,3.35
2022-07-29T01:17:23.175Z,3.40
2022-07-29T01:19:58.873Z,3.55
2022-07-29T01:22:34.682Z,3.70
2022-07-29T01:25:04.739Z,3.60
2022-07-29T01:28:02.433Z,3.40
2022-07-29T01:30:31.536Z,3.70
2022-07-29T01:33:03.978Z,3.30
2022-07-29T01:35:37.580Z,3.40
2022-07-29T01:38:23.131Z,3.47
2022-07-29T01:40:58.249Z,3.10
2022-07-29T01:43:32.720Z,3.60
2022-07-29T01:46:06.637Z,3.70
2022-07-29T01:48:51.515Z,3.53
2022-07-29T01:51:34.009Z,3.38
2022-07-29T01:54:07.389Z,3.50
2022-07-29T01:56:37.357Z,3.28
2022-07-29T01:59:07.581Z,3.00
2022-07-29T02:01:35.777Z,3.70
2022-07-29T02:04:10.859Z,3.60
2022-07-29T02:06:39.799Z,3.20
2022-07-29T02:09:08.674Z,3.47
2022-07-29T02:11:36.848Z,3.85
2022-07-29T02:14:06.100Z,3.30
2022-07-29T02:16:35.656Z,3.60
2022-07-29T02:19:03.730Z,3.40
2022-07-29T02:21:33.343Z,3.55
2022-07-29T02:24:02.745Z,3.50
2022-07-29T02:26:31.415Z,3.60
2022-07-29T02:28:59.346Z,3.30
2022-07-29T02:31:31.251Z,3.50
2022-07-29T02:33:58.508Z,3.50
2022-07-29T02:36:26.988Z,3.90
2022-07-29T02:38:58.568Z,3.40
2022-07-29T02:41:30.804Z,3.30
2022-07-29T02:44:07.451Z,3.50
2022-07-29T02:46:37.497Z,3.50
2022-07-29T02:49:22.401Z,3.30
2022-07-29T02:52:00.005Z,3.60
2022-07-29T02:54:53.790Z,3.60
2022-07-29T02:57:31.126Z,3.60
2022-07-29T03:00:04.237Z,3.50
2022-07-29T03:02:37.521Z,3.38
2022-07-29T03:05:07.566Z,3.70
2022-07-29T03:07:36.804Z,3.40
2022-07-29T03:10:05.417Z,3.57
2022-07-29T03:12:38.441Z,3.40
2022-07-29T03:15:06.774Z,3.40
2022-07-29T03:17:35.019Z,3.55
2022-07-29T03:20:02.437Z,3.50
2022-07-29T03:22:29.482Z,3.50
2022-07-29T03:24:56.305Z,3.40
2022-07-29T03:27:23.268Z,3.40
2022-07-29T03:29:50.658Z,3.40
2022-07-29T03:32:23.861Z,3.58
2022-07-29T03:34:52.198Z,3.40
2022-07-29T03:37:19.078Z,3.58
2022-07-29T03:39:48.204Z,3.60
2022-07-29T03:42:17.487Z,3.70
2022-07-29T03:44:46.825Z,3.88
2022-07-29T03:47:15.879Z,3.50
2022-07-29T03:49:45.504Z,3.20
2022-07-29T03:52:12.401Z,3.45
2022-07-29T03:54:39.549Z,3.30
2022-07-29T03:57:07.845Z,3.40
2022-07-29T03:59:35.120Z,3.70
2022-07-29T04:02:04.164Z,3.63
2022-07-29T04:04:34.807Z,3.20
2022-07-29T04:07:01.972Z,3.70
2022-07-29T04:09:28.797Z,3.40
2022-07-29T04:12:02.433Z,3.33
2022-07-29T04:14:32.111Z,3.10
2022-07-29T04:16:59.147Z,3.20
2022-07-29T04:19:26.026Z,3.30
2022-07-29T04:21:53.118Z,3.40
2022-07-29T04:24:20.332Z,3.22
2022-07-29T04:26:48.865Z,3.10
2022-07-29T04:29:15.982Z,3.30
2022-07-29T04:31:43.780Z,3.20
2022-07-29T04:34:12.998Z,3.45
2022-07-29T04:36:40.049Z,3.10
2022-07-29T04:39:06.860Z,3.08
2022-07-29T04:41:34.499Z,3.60
2022-07-29T04:44:07.026Z,3.30
2022-07-29T04:46:34.556Z,3.00
2022-07-29T04:49:01.741Z,3.05
2022-07-29T04:51:28.669Z,3.20
2022-07-29T04:53:55.500Z,3.67
2022-07-29T04:56:22.419Z,3.25
2022-07-29T04:58:49.365Z,3.63
2022-07-29T05:01:16.354Z,3.50
2022-07-29T05:03:43.300Z,3.17
2022-07-29T05:06:10.147Z,3.05
2022-07-29T05:08:37.005Z,2.90
2022-07-29T05:11:11.632Z,3.25
2022-07-29T05:13:45.076Z,3.10
2022-07-29T05:16:13.983Z,3.20
2022-07-29T05:18:41.424Z,3.22
2022-07-29T05:21:08.216Z,3.40
2022-07-29T05:23:35.104Z,2.92
2022-07-29T05:26:02.058Z,3.20
2022-07-29T05:28:34.038Z,3.67
2022-07-29T05:31:01.055Z,3.20
2022-07-29T05:33:34.902Z,3.55
2022-07-29T05:36:08.386Z,3.33
2022-07-29T05:38:38.729Z,3.45
2022-07-29T05:41:08.568Z,3.50
2022-07-29T05:43:45.205Z,3.33
2022-07-29T05:46:17.729Z,3.70
2022-07-29T05:48:45.019Z,3.30
2022-07-29T05:51:11.973Z,3.70
2022-07-29T05:53:38.934Z,3.65
2022-07-29T05:56:06.824Z,3.27
2022-07-29T05:58:34.090Z,3.70
2022-07-29T06:01:01.583Z,3.30
2022-07-29T06:03:28.877Z,3.13
2022-07-29T06:05:55.733Z,3.50
2022-07-29T06:08:22.643Z,3.22
2022-07-29T06:10:49.522Z,3.47
2022-07-29T06:13:17.100Z,3.60
2022-07-29T06:15:45.336Z,3.77
2022-07-29T06:18:14.307Z,3.20
2022-07-29T06:20:41.252Z,3.63
2022-07-29T06:23:08.469Z,3.70
2022-07-29T06:25:38.637Z,3.50
2022-07-29T06:28:05.838Z,3.65
2022-07-29T06:30:32.668Z,3.20
2022-07-29T06:32:59.611Z,3.30
2022-07-29T06:35:40.974Z,3.80
2022-07-29T06:38:30.229Z,3.45
2022-07-29T06:41:02.151Z,3.40
2022-07-29T06:43:34.681Z,3.80
2022-07-29T06:46:04.299Z,4.40
2022-07-29T06:48:31.825Z,4.20
2022-07-29T06:50:58.830Z,4.50
2022-07-29T06:53:26.022Z,4.70
2022-07-29T06:55:53.033Z,4.30
2022-07-29T06:58:21.399Z,4.50
2022-07-29T07:00:48.841Z,4.07
2022-07-29T07:03:17.054Z,4.20
2022-07-29T07:05:45.075Z,3.42
2022-07-29T07:08:12.477Z,3.42
2022-07-29T07:10:39.654Z,3.80
2022-07-29T07:13:06.871Z,3.72
2022-07-29T07:15:39.472Z,3.70
2022-07-29T07:18:07.699Z,3.70
2022-07-29T07:20:35.802Z,3.55
2022-07-29T07:23:02.726Z,3.83
2022-07-29T07:25:29.849Z,3.85
2022-07-29T07:27:56.641Z,4.00
2022-07-29T07:30:23.771Z,3.60
2022-07-29T07:32:50.899Z,3.80
2022-07-29T07:35:17.877Z,3.80
2022-07-29T07:37:44.751Z,3.80
2022-07-29T07:40:18.885Z,3.90
2022-07-29T07:42:46.096Z,3.60
2022-07-29T07:45:15.794Z,3.40
2022-07-29T07:47:43.616Z,3.87
2022-07-29T07:50:18.005Z,3.57
2022-07-29T07:52:54.242Z,4.07
2022-07-29T07:55:21.283Z,3.83
2022-07-29T07:57:48.848Z,3.70
2022-07-29T08:00:17.233Z,3.83
2022-07-29T08:02:46.028Z,3.70
2022-07-29T08:05:17.692Z,3.80
2022-07-29T08:07:46.895Z,3.80
2022-07-29T08:10:15.138Z,3.25
2022-07-29T08:12:42.867Z,3.58
2022-07-29T08:15:10.118Z,3.50
2022-07-29T08:17:37.128Z,3.43
2022-07-29T08:20:04.550Z,3.78
2022-07-29T08:22:31.337Z,3.60
2022-07-29T08:24:58.181Z,3.45
2022-07-29T08:27:43.082Z,3.28
2022-07-29T08:30:11.420Z,3.70
2022-07-29T08:32:55.220Z,3.70
2022-07-29T08:35:24.247Z,3.70
2022-07-29T08:37:51.778Z,3.90
2022-07-29T08:40:18.949Z,3.30
2022-07-29T08:42:45.800Z,3.35
2022-07-29T08:45:13.016Z,3.20
2022-07-29T08:47:40.839Z,3.30
2022-07-29T08:50:08.911Z,3.30
2022-07-29T08:52:38.760Z,3.38
2022-07-29T08:55:08.507Z,3.40
2022-07-29T08:57:37.283Z,3.75
2022-07-29T09:00:11.869Z,3.53
2022-07-29T09:02:48.735Z,3.67
2022-07-29T09:05:16.145Z,3.47
2022-07-29T09:07:44.772Z,3.00
2022-07-29T09:10:11.970Z,3.38
2022-07-29T09:12:39.334Z,3.80
2022-07-29T09:15:06.749Z,3.10
2022-07-29T09:17:46.811Z,3.20
2022-07-29T09:20:23.254Z,2.78
2022-07-29T09:22:53.589Z,3.08
2022-07-29T09:25:37.073Z,3.20
2022-07-29T09:28:15.440Z,2.90
2022-07-29T09:30:56.720Z,3.10
2022-07-29T09:33:25.202Z,2.80
2022-07-29T09:36:05.865Z,2.40
2022-07-29T09:38:34.333Z,3.10
2022-07-29T09:41:05.750Z,2.90
2022-07-29T09:43:33.907Z,2.78
2022-07-29T09:46:19.044Z,2.80
2022-07-29T09:48:46.039Z,2.90
2022-07-29T09:51:24.185Z,2.70
2022-07-29T09:53:55.532Z,2.70
2022-07-29T09:56:42.745Z,2.90
2022-07-29T09:59:12.098Z,2.70
2022-07-29T10:01:39.030Z,2.90
2022-07-29T10:04:05.998Z,2.72
2022-07-29T10:06:32.902Z,2.72
2022-07-29T10:09:13.188Z,2.75
2022-07-29T10:11:49.574Z,2.80
2022-07-29T10:14:17.664Z,2.50
2022-07-29T10:16:44.914Z,2.85
2022-07-29T10:19:11.891Z,2.50
2022-07-29T10:21:40.829Z,2.63
2022-07-29T10:24:14.716Z,2.80
2022-07-29T10:26:42.893Z,2.65
2022-07-29T10:29:09.780Z,2.90
2022-07-29T10:31:55.245Z,2.50
2022-07-29T10:34:36.386Z,2.80
2022-07-29T10:37:29.329Z,2.50
2022-07-29T10:40:43.732Z,2.90
2022-07-29T10:43:36.867Z,2.50
2022-07-29T10:46:07.464Z,3.20
2022-07-29T10:48:36.104Z,2.70
2022-07-29T10:51:09.254Z,2.83
2022-07-29T10:53:51.741Z,3.00
2022-07-29T10:56:30.768Z,2.70
2022-07-29T10:59:21.575Z,2.88
2022-07-29T11:02:02.437Z,2.80
2022-07-29T11:04:44.244Z,6.30
2022-07-29T11:07:12.230Z,5.10
2022-07-29T11:09:39.589Z,2.85
2022-07-29T11:12:39.282Z,3.10
2022-07-29T11:15:09.640Z,2.95
2022-07-29T11:17:54.857Z,3.07
2022-07-29T11:20:34.793Z,3.30
2022-07-29T11:23:25.007Z,3.10
2022-07-29T11:26:26.716Z,2.78
2022-07-29T11:28:54.395Z,2.80
2022-07-29T11:31:45.140Z,3.03
2022-07-29T11:34:28.044Z,2.90
2022-07-29T11:37:08.566Z,3.35
2022-07-29T11:39:39.449Z,3.20
2022-07-29T11:42:32.447Z,3.00
2022-07-29T11:45:41.264Z,2.80
2022-07-29T11:48:05.257Z,3.08
2022-07-29T11:50:37.949Z,2.97
2022-07-29T11:53:13.378Z,3.03
2022-07-29T11:55:51.191Z,3.10
2022-07-29T11:58:25.149Z,2.80
2022-07-29T12:00:52.557Z,2.53
2022-07-29T12:03:35.093Z,2.70
2022-07-29T12:06:07.919Z,3.17
2022-07-29T12:08:41.958Z,3.00
2022-07-29T12:11:17.347Z,3.40
2022-07-29T12:13:47.600Z,3.00
2022-07-29T12:16:16.557Z,2.70
2022-07-29T12:19:02.005Z,3.00
2022-07-29T12:21:54.046Z,2.70
2022-07-29T12:24:26.957Z,3.40
2022-07-29T12:26:56.823Z,2.80
2022-07-29T12:29:33.572Z,2.92
2022-07-29T12:32:01.622Z,3.00
2022-07-29T12:34:30.397Z,3.05
2022-07-29T12:36:57.374Z,3.10
2022-07-29T12:39:27.351Z,3.10
2022-07-29T12:42:04.785Z,3.10
2022-07-29T12:44:52.473Z,2.85
2022-07-29T12:47:21.002Z,3.00
2022-07-29T12:49:48.813Z,2.90
2022-07-29T12:52:33.032Z,2.78
2022-07-29T12:55:00.412Z,2.90
2022-07-29T12:57:27.593Z,3.00
2022-07-29T13:00:11.495Z,3.10
2022-07-29T13:02:39.847Z,3.00
2022-07-29T13:05:09.250Z,3.05
2022-07-29T13:07:54.073Z,2.50
2022-07-29T13:10:24.449Z,2.72
2022-07-29T13:13:03.947Z,2.60
2022-07-29T13:15:31.413Z,2.40
2022-07-29T13:17:58.223Z,2.50
2022-07-29T13:20:30.913Z,2.40
2022-07-29T13:23:00.065Z,2.70
2022-07-29T13:25:32.583Z,2.30
2022-07-29T13:28:00.409Z,2.30
2022-07-29T13:30:27.298Z,2.42
2022-07-29T13:32:54.393Z,2.70
2022-07-29T13:35:21.638Z,2.70
2022-07-29T13:37:48.632Z,2.25
2022-07-29T13:40:18.912Z,2.60
2022-07-29T13:42:45.797Z,2.40
2022-07-29T13:45:14.197Z,2.42
2022-07-29T13:47:45.983Z,2.20
2022-07-29T13:50:16.237Z,2.90
2022-07-29T13:52:43.084Z,2.20
2022-07-29T13:55:10.041Z,2.00
2022-07-29T13:57:36.906Z,2.50
2022-07-29T14:00:04.478Z,2.20
2022-07-29T14:02:31.361Z,2.30
2022-07-29T14:04:58.207Z,2.30
2022-07-29T14:07:25.197Z,2.13
2022-07-29T14:09:52.254Z,2.30
2022-07-29T14:12:19.974Z,2.40
2022-07-29T14:14:47.270Z,2.50
2022-07-29T14:17:14.932Z,2.58
2022-07-29T14:19:42.138Z,2.40
2022-07-29T14:22:10.719Z,2.50
2022-07-29T14:24:38.489Z,2.30
2022-07-29T14:27:09.354Z,2.47
2022-07-29T14:29:37.194Z,2.38
2022-07-29T14:32:09.919Z,1.90
2022-07-29T14:34:38.398Z,2.28
2022-07-29T14:37:09.397Z,2.30
2022-07-29T14:39:43.339Z,2.10
2022-07-29T14:42:11.531Z,2.10
2022-07-29T14:44:40.480Z,2.00
2022-07-29T14:47:08.445Z,2.20
2022-07-29T14:49:35.966Z,2.20
2022-07-29T14:52:03.366Z,2.00
2022-07-29T14:54:30.274Z,2.20
2022-07-29T14:56:58.324Z,2.15
2022-07-29T14:59:26.308Z,2.10
2022-07-29T15:01:53.264Z,2.10
2022-07-29T15:04:20.406Z,2.00
2022-07-29T15:06:47.280Z,1.90
2022-07-29T15:09:14.511Z,1.80
2022-07-29T15:11:41.508Z,2.00
2022-07-29T15:14:08.340Z,1.90
2022-07-29T15:16:38.339Z,2.13
2022-07-29T15:19:05.917Z,1.80
2022-07-29T15:21:32.986Z,1.90
2022-07-29T15:23:59.873Z,1.90
2022-07-29T15:26:27.252Z,1.83
2022-07-29T15:28:54.170Z,1.58
2022-07-29T15:31:21.056Z,1.80
2022-07-29T15:33:48.282Z,2.33
2022-07-29T15:36:35.771Z,2.45
2022-07-29T15:39:02.275Z,1.75
2022-07-29T15:41:29.123Z,1.80
2022-07-29T15:43:56.833Z,1.90
2022-07-29T15:46:42.329Z,1.80
2022-07-29T15:49:10.038Z,1.70
2022-07-29T15:51:37.215Z,1.80
2022-07-29T15:54:05.017Z,1.90
2022-07-29T15:56:32.314Z,1.80
2022-07-29T15:58:59.607Z,1.80
2022-07-29T16:01:28.191Z,1.60
2022-07-29T16:03:55.376Z,1.80
2022-07-29T16:06:22.394Z,1.60
2022-07-29T16:08:49.334Z,1.80
2022-07-29T16:11:16.256Z,1.90
2022-07-29T16:13:43.093Z,1.80
2022-07-29T16:16:10.717Z,1.67
2022-07-29T16:18:37.561Z,1.50
2022-07-29T16:21:04.462Z,1.80
2022-07-29T16:23:32.178Z,1.70
2022-07-29T16:26:00.472Z,1.60
2022-07-29T16:28:29.275Z,1.80
2022-07-29T16:30:57.346Z,1.52
2022-07-29T16:33:24.702Z,1.65
2022-07-29T16:35:52.260Z,1.90
2022-07-29T16:38:19.098Z,1.40
2022-07-29T16:40:45.946Z,1.50
2022-07-29T16:43:13.009Z,1.70
2022-07-29T16:45:46.205Z,1.60
2022-07-29T16:48:18.693Z,1.60
2022-07-29T16:50:46.009Z,1.60
2022-07-29T16:53:12.804Z,1.60
2022-07-29T16:55:42.186Z,1.60
2022-07-29T16:58:10.046Z,1.70
2022-07-29T17:00:37.243Z,1.60
2022-07-29T17:03:05.423Z,1.70
2022-07-29T17:05:52.244Z,1.50
2022-07-29T17:08:20.084Z,1.50
2022-07-29T17:10:47.409Z,1.70
2022-07-29T17:13:14.477Z,1.50
2022-07-29T17:15:43.060Z,1.80
2022-07-29T17:18:12.739Z,1.70
2022-07-29T17:20:41.848Z,1.80
2022-07-29T17:23:08.893Z,1.55
2022-07-29T17:25:35.919Z,1.58
2022-07-29T17:28:02.721Z,1.90
2022-07-29T17:30:30.051Z,1.65
2022-07-29T17:32:57.105Z,1.70
2022-07-29T17:35:42.437Z,1.80
2022-07-29T17:38:09.345Z,1.70
2022-07-29T17:40:36.490Z,1.60
2022-07-29T17:43:04.743Z,1.60
2022-07-29T17:45:49.846Z,1.75
2022-07-29T17:48:18.285Z,2.00
2022-07-29T17:50:45.636Z,1.70
2022-07-29T17:53:15.656Z,2.00
2022-07-29T17:55:45.341Z,2.10
2022-07-29T17:58:12.452Z,1.80
2022-07-29T18:00:39.438Z,1.60
2022-07-29T18:03:06.482Z,1.60
2022-07-29T18:05:33.465Z,1.60
2022-07-29T18:08:00.332Z,1.70
2022-07-29T18:10:27.972Z,1.70
2022-07-29T18:12:54.853Z,1.60
2022-07-29T18:15:21.753Z,2.40
2022-07-29T18:17:55.606Z,2.10
2022-07-29T18:20:25.812Z,1.80
2022-07-29T18:22:52.933Z,1.95
2022-07-29T18:25:19.836Z,1.90
2022-07-29T18:27:46.626Z,1.80
2022-07-29T18:30:15.189Z,1.83
2022-07-29T18:32:54.360Z,1.70
2022-07-29T18:35:26.705Z,2.20
2022-07-29T18:38:02.016Z,2.25
2022-07-29T18:40:30.157Z,1.70
2022-07-29T18:42:57.272Z,1.80
2022-07-29T18:45:28.518Z,2.03
2022-07-29T18:47:56.542Z,2.10
2022-07-29T18:50:28.806Z,2.17
2022-07-29T18:52:58.687Z,1.90
2022-07-29T18:55:26.595Z,1.80
2022-07-29T18:57:56.569Z,1.85
2022-07-29T19:00:25.289Z,2.10
2022-07-29T19:02:52.744Z,1.60
2022-07-29T19:05:20.035Z,2.00
2022-07-29T19:07:46.917Z,1.70
2022-07-29T19:10:13.837Z,1.70
2022-07-29T19:12:40.916Z,1.67
2022-07-29T19:15:08.560Z,1.40
2022-07-29T19:17:35.467Z,1.65
2022-07-29T19:20:02.718Z,1.80
2022-07-29T19:22:29.969Z,1.50
2022-07-29T19:24:59.788Z,1.50
2022-07-29T19:27:26.733Z,1.50
2022-07-29T19:29:56.660Z,1.77
2022-07-29T19:32:26.509Z,1.75
2022-07-29T19:35:12.483Z,1.70
2022-07-29T19:37:39.420Z,1.38
2022-07-29T19:40:06.949Z,1.50
2022-07-29T19:42:34.793Z,1.65
2022-07-29T19:45:01.577Z,2.00
2022-07-29T19:47:29.061Z,1.70
2022-07-29T19:49:55.847Z,2.00
2022-07-29T19:52:22.716Z,1.88
2022-07-29T19:54:49.520Z,1.67
2022-07-29T19:57:16.474Z,1.75
2022-07-29T19:59:44.242Z,1.60
2022-07-29T20:02:12.219Z,1.70
2022-07-29T20:04:40.310Z,1.60
2022-07-29T20:07:07.269Z,2.00
2022-07-29T20:09:34.289Z,1.67
2022-07-29T20:12:01.242Z,1.63
2022-07-29T20:14:28.095Z,1.60
2022-07-29T20:16:54.880Z,1.60
2022-07-29T20:19:21.763Z,1.70
2022-07-29T20:21:48.552Z,1.80
2022-07-29T20:24:15.425Z,1.67
2022-07-29T20:26:42.427Z,1.42
2022-07-29T20:29:09.572Z,1.92
2022-07-29T20:31:36.580Z,1.90
2022-07-29T20:34:03.669Z,2.00
2022-07-29T20:36:30.922Z,2.00
2022-07-29T20:38:59.913Z,1.70
2022-07-29T20:41:27.027Z,2.10
2022-07-29T20:43:53.832Z,1.70
2022-07-29T20:46:20.869Z,1.60
2022-07-29T20:48:47.999Z,1.50
2022-07-29T20:51:14.979Z,1.80
2022-07-29T20:53:41.985Z,1.73
2022-07-29T20:56:09.017Z,1.90
2022-07-29T20:58:36.514Z,1.80
2022-07-29T21:01:04.116Z,1.60
2022-07-29T21:03:31.271Z,1.60
2022-07-29T21:05:58.628Z,1.70
2022-07-29T21:08:26.297Z,1.70
2022-07-29T21:10:53.761Z,1.60
2022-07-29T21:13:20.905Z,1.80
2022-07-29T21:15:49.896Z,1.60
2022-07-29T21:18:43.079Z,2.00
2022-07-29T21:21:10.187Z,1.50
2022-07-29T21:23:37.194Z,1.60
2022-07-29T21:26:04.733Z,1.80
2022-07-29T21:28:40.905Z,1.90
2022-07-29T21:31:12.572Z,1.70
2022-07-29T21:33:45.818Z,1.80
2022-07-29T21:36:47.124Z,1.73
2022-07-29T21:39:06.838Z,1.70
2022-07-29T21:41:34.670Z,1.40
2022-07-29T21:44:01.608Z,1.50
2022-07-29T21:46:28.646Z,1.90
2022-07-29T21:48:55.757Z,1.50
2022-07-29T21:51:22.924Z,1.60
2022-07-29T21:53:50.591Z,1.98
2022-07-29T21:56:19.964Z,1.70
2022-07-29T21:58:49.410Z,1.90
2022-07-29T22:01:16.346Z,1.80
2022-07-29T22:03:43.305Z,1.80
2022-07-29T22:06:11.235Z,1.73
2022-07-29T22:08:45.604Z,1.75
2022-07-29T22:11:13.145Z,1.80
2022-07-29T22:13:40.139Z,1.70
2022-07-29T22:16:07.326Z,1.70
2022-07-29T22:18:34.339Z,1.70
2022-07-29T22:21:01.562Z,1.70
2022-07-29T22:23:28.429Z,1.70
2022-07-29T22:25:55.283Z,1.90
2022-07-29T22:28:22.236Z,1.50
2022-07-29T22:30:49.073Z,1.60
2022-07-29T22:33:17.413Z,1.73
2022-07-29T22:35:45.201Z,1.42
2022-07-29T22:38:16.328Z,1.60
2022-07-29T22:40:43.144Z,1.67
2022-07-29T22:43:10.715Z,1.80
2022-07-29T22:45:37.606Z,1.90
2022-07-29T22:48:05.668Z,1.70
2022-07-29T22:50:32.874Z,1.80
2022-07-29T22:52:59.676Z,1.60
2022-07-29T22:55:26.504Z,1.60
2022-07-29T22:57:53.317Z,1.80
2022-07-29T23:00:20.176Z,1.52
2022-07-29T23:02:47.764Z,1.63
2022-07-29T23:05:15.728Z,1.80
2022-07-29T23:07:42.936Z,1.70
2022-07-29T23:10:10.031Z,1.60
2022-07-29T23:12:36.891Z,1.90
2022-07-29T23:15:05.332Z,1.80
2022-07-29T23:17:36.140Z,1.70
2022-07-29T23:20:06.713Z,1.70
2022-07-29T23:22:34.068Z,1.50
2022-07-29T23:25:01.080Z,1.50
2022-07-29T23:27:27.880Z,1.60
2022-07-29T23:29:54.703Z,1.60
2022-07-29T23:32:21.524Z,1.80
2022-07-29T23:34:48.429Z,1.70
2022-07-29T23:37:15.214Z,1.60
2022-07-29T23:39:42.037Z,1.70
2022-07-29T23:42:09.766Z,1.75
2022-07-29T23:44:36.609Z,1.67
2022-07-29T23:47:03.958Z,1.80
2022-07-29T23:49:31.016Z,1.80
2022-07-29T23:51:57.805Z,1.70
2022-07-29T23:54:24.673Z,1.60
2022-07-29T23:56:51.464Z,1.70
2022-07-29T23:59:18.286Z,1.60
